createdAt,value
2019-06-01T00:01:40.401Z,16.10
2019-06-01T00:04:26.158Z,16.10
2019-06-01T00:07:11.738Z,16.00
2019-06-01T00:09:57.247Z,16.00
2019-06-01T00:12:43.487Z,15.90
2019-06-01T00:15:29.119Z,15.90
2019-06-01T00:18:14.775Z,15.80
2019-06-01T00:21:00.098Z,15.80
2019-06-01T00:23:46.579Z,15.80
2019-06-01T00:26:31.387Z,15.60
2019-06-01T00:29:16.446Z,15.50
2019-06-01T00:32:01.918Z,15.50
2019-06-01T00:34:47.692Z,15.40
2019-06-01T00:37:32.767Z,15.40
2019-06-01T00:40:18.027Z,15.30
2019-06-01T00:43:03.715Z,15.20
2019-06-01T00:45:48.622Z,15.30
2019-06-01T00:48:33.758Z,15.30
2019-06-01T00:51:18.585Z,15.20
2019-06-01T00:54:03.452Z,15.20
2019-06-01T00:56:49.585Z,15.20
2019-06-01T00:59:35.839Z,15.20
2019-06-01T01:02:21.465Z,15.20
2019-06-01T01:05:09.430Z,15.20
2019-06-01T01:07:55.163Z,15.20
2019-06-01T01:10:40.166Z,15.10
2019-06-01T01:13:26.166Z,15.10
2019-06-01T01:16:11.750Z,15.00
2019-06-01T01:18:57.221Z,15.00
2019-06-01T01:21:42.662Z,15.00
2019-06-01T01:24:27.970Z,14.90
2019-06-01T01:27:13.091Z,14.90
2019-06-01T01:29:58.411Z,14.90
2019-06-01T01:32:43.639Z,14.90
2019-06-01T01:35:28.835Z,14.90
2019-06-01T01:38:13.837Z,14.90
2019-06-01T01:40:59.526Z,14.90
2019-06-01T01:43:45.184Z,14.80
2019-06-01T01:46:30.026Z,14.70
2019-06-01T01:49:15.595Z,14.60
2019-06-01T01:52:01.610Z,14.40
2019-06-01T01:54:47.330Z,14.40
2019-06-01T01:57:32.778Z,14.30
2019-06-01T02:00:46.878Z,14.30
2019-06-01T02:03:32.066Z,14.30
2019-06-01T02:06:17.200Z,14.20
2019-06-01T02:09:02.601Z,14.20
2019-06-01T02:11:47.660Z,14.20
2019-06-01T02:14:33.305Z,14.10
2019-06-01T02:17:18.782Z,14.10
2019-06-01T02:20:04.254Z,14.10
2019-06-01T02:22:49.698Z,14.00
2019-06-01T02:25:35.099Z,14.00
2019-06-01T02:28:20.590Z,14.00
2019-06-01T02:31:05.940Z,14.00
2019-06-01T02:33:51.929Z,13.90
2019-06-01T02:36:37.715Z,13.90
2019-06-01T02:39:22.815Z,13.90
2019-06-01T02:42:09.443Z,13.90
2019-06-01T02:44:55.093Z,13.90
2019-06-01T02:47:40.230Z,13.90
2019-06-01T02:50:25.282Z,13.90
2019-06-01T02:53:10.659Z,14.00
2019-06-01T02:55:56.074Z,14.10
2019-06-01T02:58:41.734Z,14.20
2019-06-01T03:01:34.152Z,14.10
2019-06-01T03:04:19.610Z,14.10
2019-06-01T03:07:06.800Z,14.10
2019-06-01T03:09:52.203Z,14.10
2019-06-01T03:12:41.694Z,14.20
2019-06-01T03:15:26.638Z,14.20
2019-06-01T03:18:12.317Z,14.10
2019-06-01T03:20:57.597Z,14.10
2019-06-01T03:23:42.774Z,14.10
2019-06-01T03:26:28.163Z,14.10
2019-06-01T03:29:14.360Z,14.10
2019-06-01T03:32:20.133Z,14.10
2019-06-01T03:34:47.259Z,14.10
2019-06-01T03:37:32.670Z,14.10
2019-06-01T03:40:23.770Z,14.20
2019-06-01T03:43:04.468Z,14.20
2019-06-01T03:45:49.805Z,14.20
2019-06-01T03:48:35.587Z,14.20
2019-06-01T03:51:21.102Z,14.30
2019-06-01T03:54:06.899Z,14.30
2019-06-01T03:56:53.246Z,14.30
2019-06-01T03:59:38.462Z,14.30
2019-06-01T04:02:32.914Z,14.30
2019-06-01T04:05:11.477Z,14.30
2019-06-01T04:07:57.022Z,14.30
2019-06-01T04:10:42.499Z,14.30
2019-06-01T04:13:27.593Z,14.30
2019-06-01T04:16:12.710Z,14.30
2019-06-01T04:18:58.285Z,14.30
2019-06-01T04:21:43.523Z,14.30
2019-06-01T04:24:28.683Z,14.30
2019-06-01T04:27:13.831Z,14.30
2019-06-01T04:29:59.287Z,14.30
2019-06-01T04:32:50.038Z,14.30
2019-06-01T04:35:31.726Z,14.30
2019-06-01T04:38:17.074Z,14.40
2019-06-01T04:41:03.497Z,14.40
2019-06-01T04:43:49.198Z,14.50
2019-06-01T04:46:34.666Z,14.60
2019-06-01T04:49:20.099Z,14.70
2019-06-01T04:52:06.651Z,14.80
2019-06-01T04:54:52.107Z,14.80
2019-06-01T04:57:37.411Z,14.90
2019-06-01T05:00:27.673Z,14.90
2019-06-01T05:03:10.827Z,15.00
2019-06-01T05:05:56.839Z,15.00
2019-06-01T05:08:41.958Z,15.00
2019-06-01T05:11:26.779Z,15.10
2019-06-01T05:14:12.180Z,15.20
2019-06-01T05:16:57.906Z,15.30
2019-06-01T05:19:43.345Z,15.40
2019-06-01T05:22:28.102Z,15.50
2019-06-01T05:25:13.690Z,15.50
2019-06-01T05:28:00.722Z,15.70
2019-06-01T05:30:46.032Z,15.80
2019-06-01T05:33:37.415Z,16.00
2019-06-01T05:36:18.917Z,16.10
2019-06-01T05:39:05.361Z,16.20
2019-06-01T05:41:50.549Z,16.40
2019-06-01T05:44:35.910Z,16.50
2019-06-01T05:47:22.443Z,16.60
2019-06-01T05:50:07.683Z,16.80
2019-06-01T05:52:53.058Z,16.90
2019-06-01T05:55:38.834Z,17.00
2019-06-01T05:58:24.102Z,17.20
2019-06-01T06:01:10.373Z,17.40
2019-06-01T06:03:55.634Z,17.50
2019-06-01T06:06:40.901Z,17.60
2019-06-01T06:09:26.306Z,17.70
2019-06-01T06:12:11.323Z,17.80
2019-06-01T06:14:56.751Z,17.90
2019-06-01T06:17:41.654Z,18.00
2019-06-01T06:20:27.030Z,18.20
2019-06-01T06:23:12.313Z,18.50
2019-06-01T06:25:58.031Z,18.90
2019-06-01T06:28:43.678Z,19.20
2019-06-01T06:31:28.539Z,19.60
2019-06-01T06:34:13.712Z,20.10
2019-06-01T06:36:58.839Z,20.60
2019-06-01T06:39:44.269Z,21.10
2019-06-01T06:42:29.807Z,21.90
2019-06-01T06:45:14.834Z,22.70
2019-06-01T06:48:00.151Z,23.30
2019-06-01T06:50:45.247Z,24.00
2019-06-01T06:53:35.101Z,24.10
2019-06-01T06:56:19.661Z,23.80
2019-06-01T06:59:05.122Z,23.80
2019-06-01T07:01:50.130Z,24.10
2019-06-01T07:04:35.275Z,24.40
2019-06-01T07:07:21.717Z,24.50
2019-06-01T07:10:07.546Z,24.70
2019-06-01T07:12:53.222Z,25.10
2019-06-01T07:15:38.286Z,25.50
2019-06-01T07:18:23.749Z,25.70
2019-06-01T07:21:09.338Z,26.30
2019-06-01T07:23:54.973Z,26.10
2019-06-01T07:26:39.896Z,26.00
2019-06-01T07:29:26.176Z,26.10
2019-06-01T07:32:11.846Z,26.70
2019-06-01T07:35:00.916Z,26.90
2019-06-01T07:37:44.780Z,26.50
2019-06-01T07:40:29.852Z,26.80
2019-06-01T07:43:14.999Z,27.10
2019-06-01T07:46:00.070Z,26.60
2019-06-01T07:48:45.714Z,27.00
2019-06-01T07:51:31.719Z,28.00
2019-06-01T07:54:17.274Z,28.80
2019-06-01T07:57:02.458Z,28.80
2019-06-01T07:59:47.450Z,28.40
2019-06-01T08:02:33.105Z,28.70
2019-06-01T08:05:18.320Z,29.00
2019-06-01T08:08:03.626Z,29.30
2019-06-01T08:10:49.398Z,29.40
2019-06-01T08:13:35.959Z,29.60
2019-06-01T08:16:21.435Z,29.10
2019-06-01T08:19:07.260Z,29.40
2019-06-01T08:21:52.460Z,29.90
2019-06-01T08:24:38.060Z,30.20
2019-06-01T08:27:24.399Z,30.50
2019-06-01T08:30:09.566Z,30.90
2019-06-01T08:32:55.651Z,31.40
2019-06-01T08:35:41.221Z,31.40
2019-06-01T08:38:27.460Z,30.90
2019-06-01T08:41:12.996Z,30.80
2019-06-01T08:43:58.257Z,30.80
2019-06-01T08:46:43.822Z,31.10
2019-06-01T08:49:30.674Z,31.10
2019-06-01T08:52:16.896Z,31.30
2019-06-01T08:55:02.231Z,31.30
2019-06-01T08:57:47.535Z,31.80
2019-06-01T09:00:32.979Z,32.40
2019-06-01T09:03:18.023Z,32.90
2019-06-01T09:06:03.682Z,32.80
2019-06-01T09:08:48.950Z,32.90
2019-06-01T09:11:35.359Z,32.70
2019-06-01T09:14:21.250Z,32.60
2019-06-01T09:17:06.655Z,32.20
2019-06-01T09:19:52.319Z,31.50
2019-06-01T09:22:38.012Z,31.30
2019-06-01T09:25:23.431Z,31.40
2019-06-01T09:28:08.547Z,32.10
2019-06-01T09:30:53.806Z,33.10
2019-06-01T09:33:38.890Z,33.90
2019-06-01T09:36:23.966Z,34.20
2019-06-01T09:39:09.183Z,33.70
2019-06-01T09:41:54.942Z,33.60
2019-06-01T09:44:39.731Z,33.70
2019-06-01T09:47:25.178Z,32.70
2019-06-01T09:50:10.868Z,32.60
2019-06-01T09:52:55.802Z,33.10
2019-06-01T09:55:40.754Z,32.60
2019-06-01T09:58:25.638Z,32.90
2019-06-01T10:01:11.127Z,33.20
2019-06-01T10:03:56.165Z,33.10
2019-06-01T10:06:41.959Z,33.00
2019-06-01T10:09:27.211Z,33.20
2019-06-01T10:12:12.698Z,33.30
2019-06-01T10:14:58.046Z,33.70
2019-06-01T10:17:43.953Z,33.90
2019-06-01T10:20:29.128Z,34.40
2019-06-01T10:23:14.189Z,35.00
2019-06-01T10:25:59.208Z,35.00
2019-06-01T10:28:44.826Z,34.90
2019-06-01T10:31:30.506Z,34.90
2019-06-01T10:34:16.013Z,36.10
2019-06-01T10:37:02.178Z,37.10
2019-06-01T10:39:47.436Z,37.10
2019-06-01T10:42:34.025Z,37.20
2019-06-01T10:45:20.019Z,36.80
2019-06-01T10:48:05.606Z,37.00
2019-06-01T10:50:50.828Z,36.60
2019-06-01T10:53:36.401Z,36.20
2019-06-01T10:56:21.586Z,36.00
2019-06-01T10:59:06.782Z,36.20
2019-06-01T11:01:52.187Z,36.80
2019-06-01T11:04:37.260Z,37.50
2019-06-01T11:07:22.869Z,38.20
2019-06-01T11:10:08.568Z,38.20
2019-06-01T11:12:53.742Z,38.00
2019-06-01T11:15:39.258Z,38.30
2019-06-01T11:18:24.644Z,38.10
2019-06-01T11:21:10.034Z,37.80
2019-06-01T11:23:55.535Z,37.90
2019-06-01T11:26:41.955Z,38.80
2019-06-01T11:29:27.462Z,39.80
2019-06-01T11:32:13.094Z,39.80
2019-06-01T11:34:58.858Z,39.30
2019-06-01T11:37:44.560Z,39.70
2019-06-01T11:40:29.483Z,38.60
2019-06-01T11:43:14.966Z,38.20
2019-06-01T11:46:00.244Z,37.10
2019-06-01T11:48:45.640Z,36.10
2019-06-01T11:51:30.919Z,36.20
2019-06-01T11:54:16.863Z,36.80
2019-06-01T11:57:02.176Z,36.80
2019-06-01T11:59:47.416Z,36.80
2019-06-01T12:02:32.878Z,37.40
2019-06-01T12:05:18.454Z,38.20
2019-06-01T12:08:03.667Z,38.50
2019-06-01T12:10:48.638Z,38.80
2019-06-01T12:13:33.705Z,38.50
2019-06-01T12:16:18.887Z,38.30
2019-06-01T12:19:03.701Z,38.00
2019-06-01T12:21:49.494Z,37.70
2019-06-01T12:24:34.614Z,38.20
2019-06-01T12:27:20.049Z,38.50
2019-06-01T12:30:05.126Z,38.50
2019-06-01T12:32:50.427Z,36.10
2019-06-01T12:35:36.111Z,35.40
2019-06-01T12:38:22.606Z,35.30
2019-06-01T12:41:08.178Z,34.30
2019-06-01T12:44:11.206Z,34.10
2019-06-01T12:46:56.730Z,34.10
2019-06-01T12:49:42.251Z,35.00
2019-06-01T12:52:27.719Z,34.80
2019-06-01T12:55:13.145Z,34.40
2019-06-01T12:57:58.449Z,35.50
2019-06-01T13:00:44.210Z,36.00
2019-06-01T13:03:30.183Z,36.30
2019-06-01T13:06:15.278Z,35.50
2019-06-01T13:09:00.432Z,35.50
2019-06-01T13:11:45.687Z,35.80
2019-06-01T13:14:30.685Z,35.90
2019-06-01T13:17:16.035Z,36.50
2019-06-01T13:20:01.451Z,36.60
2019-06-01T13:22:47.715Z,37.10
2019-06-01T13:25:32.828Z,38.00
2019-06-01T13:28:17.635Z,38.10
2019-06-01T13:31:03.092Z,38.20
2019-06-01T13:33:51.756Z,37.10
2019-06-01T13:36:35.460Z,35.60
2019-06-01T13:39:21.038Z,35.10
2019-06-01T13:42:06.204Z,35.40
2019-06-01T13:44:52.092Z,35.30
2019-06-01T13:47:37.207Z,34.50
2019-06-01T13:50:22.382Z,34.60
2019-06-01T13:53:07.471Z,35.40
2019-06-01T13:55:52.879Z,35.80
2019-06-01T13:58:38.474Z,36.00
2019-06-01T14:01:23.859Z,35.70
2019-06-01T14:04:09.583Z,35.90
2019-06-01T14:06:55.502Z,36.30
2019-06-01T14:09:40.947Z,35.90
2019-06-01T14:12:25.802Z,35.60
2019-06-01T14:15:11.385Z,35.60
2019-06-01T14:17:56.870Z,35.50
2019-06-01T14:20:42.224Z,35.80
2019-06-01T14:23:27.589Z,35.40
2019-06-01T14:26:12.443Z,35.20
2019-06-01T14:28:57.558Z,34.70
2019-06-01T14:31:42.868Z,33.90
2019-06-01T14:34:28.090Z,34.60
2019-06-01T14:37:13.222Z,35.10
2019-06-01T14:39:58.806Z,34.30
2019-06-01T14:42:44.177Z,33.50
2019-06-01T14:45:28.887Z,33.60
2019-06-01T14:48:14.144Z,34.10
2019-06-01T14:50:59.115Z,33.80
2019-06-01T14:53:44.158Z,33.70
2019-06-01T14:56:30.003Z,33.50
2019-06-01T14:59:15.578Z,34.00
2019-06-01T15:02:00.919Z,34.40
2019-06-01T15:04:46.557Z,34.60
2019-06-01T15:07:31.691Z,34.60
2019-06-01T15:10:16.900Z,34.30
2019-06-01T15:13:03.453Z,34.60
2019-06-01T15:15:49.491Z,34.40
2019-06-01T15:18:34.526Z,34.10
2019-06-01T15:21:20.290Z,34.10
2019-06-01T15:24:05.606Z,33.30
2019-06-01T15:26:52.406Z,32.60
2019-06-01T15:29:37.518Z,31.60
2019-06-01T15:32:22.390Z,31.80
2019-06-01T15:35:07.657Z,31.90
2019-06-01T15:37:57.159Z,32.10
2019-06-01T15:40:40.142Z,32.10
2019-06-01T15:43:25.578Z,31.80
2019-06-01T15:46:10.885Z,31.60
2019-06-01T15:48:57.681Z,32.00
2019-06-01T15:51:43.781Z,32.10
2019-06-01T15:54:29.658Z,32.30
2019-06-01T15:57:15.338Z,32.50
2019-06-01T16:00:00.761Z,32.40
2019-06-01T16:02:46.036Z,32.20
2019-06-01T16:05:31.463Z,32.00
2019-06-01T16:08:16.598Z,31.40
2019-06-01T16:11:04.636Z,31.20
2019-06-01T16:13:49.410Z,31.00
2019-06-01T16:16:34.717Z,30.40
2019-06-01T16:19:20.254Z,29.80
2019-06-01T16:22:05.198Z,29.50
2019-06-01T16:24:50.197Z,29.00
2019-06-01T16:27:35.193Z,28.60
2019-06-01T16:30:20.615Z,28.20
2019-06-01T16:33:05.809Z,27.90
2019-06-01T16:35:50.914Z,27.70
2019-06-01T16:38:36.219Z,27.50
2019-06-01T16:41:21.385Z,27.40
2019-06-01T16:44:06.534Z,27.20
2019-06-01T16:46:52.330Z,27.00
2019-06-01T16:49:37.345Z,26.90
2019-06-01T16:52:22.886Z,26.80
2019-06-01T16:55:08.077Z,26.70
2019-06-01T16:57:53.718Z,26.60
2019-06-01T17:00:39.192Z,26.60
2019-06-01T17:03:24.463Z,26.60
2019-06-01T17:06:10.034Z,26.40
2019-06-01T17:08:56.643Z,26.30
2019-06-01T17:11:41.986Z,26.30
2019-06-01T17:14:27.074Z,26.20
2019-06-01T17:17:12.397Z,26.10
2019-06-01T17:19:58.940Z,26.00
2019-06-01T17:22:44.383Z,25.70
2019-06-01T17:25:29.498Z,25.60
2019-06-01T17:28:14.860Z,25.40
2019-06-01T17:31:00.154Z,25.30
2019-06-01T17:33:45.491Z,25.10
2019-06-01T17:36:30.465Z,24.90
2019-06-01T17:39:16.112Z,24.70
2019-06-01T17:42:02.464Z,24.50
2019-06-01T17:44:48.117Z,24.40
2019-06-01T17:47:33.146Z,24.30
2019-06-01T17:50:19.094Z,24.20
2019-06-01T17:53:04.710Z,24.10
2019-06-01T17:55:50.308Z,23.90
2019-06-01T17:58:35.978Z,23.80
2019-06-01T18:01:21.255Z,23.70
2019-06-01T18:04:06.198Z,23.60
2019-06-01T18:06:51.262Z,23.60
2019-06-01T18:09:36.829Z,23.50
2019-06-01T18:12:21.819Z,23.50
2019-06-01T18:15:08.024Z,23.40
2019-06-01T18:17:54.099Z,23.30
2019-06-01T18:20:39.677Z,23.20
2019-06-01T18:23:24.579Z,23.00
2019-06-01T18:26:09.486Z,22.80
2019-06-01T18:28:54.861Z,22.70
2019-06-01T18:31:39.826Z,22.50
2019-06-01T18:34:25.815Z,22.30
2019-06-01T18:37:11.695Z,22.30
2019-06-01T18:39:57.047Z,22.30
2019-06-01T18:42:42.061Z,22.10
2019-06-01T18:45:27.191Z,22.00
2019-06-01T18:48:12.625Z,22.00
2019-06-01T18:50:57.926Z,21.90
2019-06-01T18:53:43.036Z,21.80
2019-06-01T18:56:28.622Z,21.60
2019-06-01T18:59:14.662Z,21.50
2019-06-01T19:01:59.443Z,21.40
2019-06-01T19:04:45.098Z,21.30
2019-06-01T19:07:30.608Z,21.10
2019-06-01T19:10:15.791Z,21.00
2019-06-01T19:13:01.426Z,20.80
2019-06-01T19:15:46.654Z,20.70
2019-06-01T19:18:31.750Z,20.60
2019-06-01T19:21:17.186Z,20.50
2019-06-01T19:24:02.495Z,20.40
2019-06-01T19:26:48.270Z,20.30
2019-06-01T19:29:33.668Z,20.20
2019-06-01T19:32:21.228Z,20.10
2019-06-01T19:35:07.400Z,20.00
2019-06-01T19:37:52.734Z,19.80
2019-06-01T19:40:38.531Z,19.80
2019-06-01T19:43:23.886Z,19.60
2019-06-01T19:46:09.753Z,19.50
2019-06-01T19:48:55.042Z,19.50
2019-06-01T19:51:40.814Z,19.30
2019-06-01T19:54:25.553Z,19.20
2019-06-01T19:57:11.809Z,19.10
2019-06-01T19:59:57.546Z,19.10
2019-06-01T20:02:43.124Z,19.00
2019-06-01T20:05:28.490Z,19.00
2019-06-01T20:08:14.302Z,18.90
2019-06-01T20:10:59.646Z,18.90
2019-06-01T20:13:45.323Z,18.80
2019-06-01T20:16:30.796Z,18.80
2019-06-01T20:19:16.051Z,18.70
2019-06-01T20:22:01.814Z,18.70
2019-06-01T20:24:47.223Z,18.70
2019-06-01T20:27:32.327Z,18.60
2019-06-01T20:30:17.826Z,18.50
2019-06-01T20:33:02.817Z,18.50
2019-06-01T20:35:48.191Z,18.40
2019-06-01T20:38:33.282Z,18.40
2019-06-01T20:41:18.696Z,18.30
2019-06-01T20:44:03.874Z,18.30
2019-06-01T20:46:49.476Z,18.30
2019-06-01T20:49:35.250Z,18.20
2019-06-01T20:52:20.947Z,18.20
2019-06-01T20:55:06.511Z,18.10
2019-06-01T20:57:51.983Z,18.00
2019-06-01T21:00:37.659Z,18.00
2019-06-01T21:03:24.192Z,18.00
2019-06-01T21:06:09.902Z,17.90
2019-06-01T21:08:55.615Z,17.90
2019-06-01T21:11:41.100Z,17.90
2019-06-01T21:14:26.168Z,17.90
2019-06-01T21:17:11.342Z,17.90
2019-06-01T21:19:56.436Z,17.80
2019-06-01T21:22:42.375Z,17.80
2019-06-01T21:25:27.633Z,17.80
2019-06-01T21:28:14.906Z,17.80
2019-06-01T21:31:00.033Z,17.70
2019-06-01T21:33:45.285Z,17.70
2019-06-01T21:36:30.757Z,17.60
2019-06-01T21:39:17.527Z,17.60
2019-06-01T21:42:03.045Z,17.50
2019-06-01T21:44:48.726Z,17.50
2019-06-01T21:47:34.103Z,17.40
2019-06-01T21:50:19.945Z,17.40
2019-06-01T21:53:05.418Z,17.40
2019-06-01T21:55:50.677Z,17.30
2019-06-01T21:58:35.882Z,17.30
2019-06-01T22:01:21.158Z,17.30
2019-06-01T22:04:06.311Z,17.30
2019-06-01T22:06:51.371Z,17.20
2019-06-01T22:09:36.406Z,17.20
2019-06-01T22:12:21.513Z,17.20
2019-06-01T22:15:07.141Z,17.20
2019-06-01T22:17:52.771Z,17.20
2019-06-01T22:20:38.018Z,17.20
2019-06-01T22:23:23.881Z,17.20
2019-06-01T22:26:09.060Z,17.10
2019-06-01T22:28:54.371Z,17.10
2019-06-01T22:31:39.826Z,17.10
2019-06-01T22:34:24.907Z,17.10
2019-06-01T22:37:10.570Z,17.10
2019-06-01T22:39:55.828Z,17.00
2019-06-01T22:42:40.876Z,16.90
2019-06-01T22:45:27.096Z,16.90
2019-06-01T22:48:12.978Z,16.80
2019-06-01T22:50:58.559Z,16.80
2019-06-01T22:53:43.828Z,16.80
2019-06-01T22:56:29.448Z,16.80
2019-06-01T22:59:14.578Z,16.70
2019-06-01T23:01:59.932Z,16.70
2019-06-01T23:04:45.819Z,16.70
2019-06-01T23:07:31.348Z,16.70
2019-06-01T23:10:16.993Z,16.70
2019-06-01T23:13:02.096Z,16.70
2019-06-01T23:15:47.422Z,16.70
2019-06-01T23:18:32.755Z,16.70
2019-06-01T23:21:18.797Z,16.70
2019-06-01T23:24:04.035Z,16.70
2019-06-01T23:26:49.099Z,16.70
2019-06-01T23:29:34.091Z,16.60
2019-06-01T23:32:19.862Z,16.60
2019-06-01T23:35:04.654Z,16.50
2019-06-01T23:37:49.969Z,16.60
2019-06-01T23:40:35.034Z,16.60
2019-06-01T23:43:20.202Z,16.60
2019-06-01T23:46:05.118Z,16.70
2019-06-01T23:48:50.199Z,16.80
2019-06-01T23:51:35.151Z,16.90
2019-06-01T23:54:20.527Z,16.70
2019-06-01T23:57:06.345Z,16.60
2019-06-01T23:59:51.815Z,16.50
